^^
Grace C. Lehan Memorial Weather Station Historical Data
Daily Summary for April 19, 2021 Units:  Both    English   Metric
Daily Weekly Monthly Yearly
  High: Low: Average:
Temperature: 74.7 °F /  23.7 °C 59.8 °F /  15.4 °C 68.3 °F /  20.2 °C
Dew Point: 66.6 °F /  19.2 °C 49.2 °F /  9.6 °C 56.4 °F /  13.6 °C
Humidity: 88% 41.6% 68%
Wind Speed: 5mph /  8km/h - 0.7mph /  1.1km/h
Wind Gust: 13mph /  20.9km/h - -
Wind- - SW
Pressure: 30.21 in /  1022.9 hPa 30.00 in /  1015.8 hPa -
Precipitation: 0.00 in /  0 mm    
 
 
Tabular Data for April 19, 2021
Time Temperature Dew Point Pressure Wind Wind Speed Wind Gust Humidity Rainfall Rate (Hourly) solar
00:09 70.6 °F /  21.4 °C 66.6 °F /  19.2 °C 30.01in /  1016.1hPa NNW 0.8mph /  1.3km/h 5mph /  8km/h 87% 0.00in /  0mm 0 W/m2
00:14 70.6 °F /  21.4 °C 66.6 °F /  19.2 °C 30.01in /  1016.1hPa NNW 1.8mph /  2.9km/h 10mph /  16.1km/h 87% 0.00in /  0mm 0 W/m2
00:19 70.6 °F /  21.4 °C 66.6 °F /  19.2 °C 30.01in /  1016.1hPa NW 1.3mph /  2.1km/h 10mph /  16.1km/h 87% 0.00in /  0mm 0 W/m2
00:24 70.5 °F /  21.4 °C 66.5 °F /  19.2 °C 30.01in /  1016.1hPa NW 0.6mph /  1km/h 10mph /  16.1km/h 87% 0.00in /  0mm 0 W/m2
00:29 70.4 °F /  21.3 °C 66.4 °F /  19.1 °C 30.01in /  1016.1hPa NW 0.7mph /  1.1km/h 10mph /  16.1km/h 87% 0.00in /  0mm 0 W/m2
00:34 70.4 °F /  21.3 °C 66.3 °F /  19.1 °C 30.01in /  1016.1hPa NW 1.4mph /  2.3km/h 10mph /  16.1km/h 87% 0.00in /  0mm 0 W/m2
00:39 70.2 °F /  21.2 °C 66.3 °F /  19.1 °C 30.01in /  1016.1hPa NW 1.2mph /  1.9km/h 7mph /  11.3km/h 87.3% 0.00in /  0mm 0 W/m2
00:44 70.1 °F /  21.2 °C 66.3 °F /  19.1 °C 30.01in /  1016.1hPa NW 0.9mph /  1.4km/h 7mph /  11.3km/h 87.6% 0.00in /  0mm 0 W/m2
00:49 70 °F /  21.1 °C 66.3 °F /  19.1 °C 30.01in /  1016.1hPa NW 1.1mph /  1.8km/h 7mph /  11.3km/h 88% 0.00in /  0mm 0 W/m2
00:54 69.9 °F /  21.1 °C 66.2 °F /  19 °C 30.01in /  1016.1hPa NW 0.7mph /  1.1km/h 7mph /  11.3km/h 88% 0.00in /  0mm 0 W/m2
00:59 69.8 °F /  21 °C 66.1 °F /  18.9 °C 30.01in /  1016.1hPa NW 0.4mph /  0.6km/h 7mph /  11.3km/h 88% 0.00in /  0mm 0 W/m2
01:04 69.7 °F /  20.9 °C 66 °F /  18.9 °C 30.01in /  1016.1hPa NNW 0.4mph /  0.6km/h 7mph /  11.3km/h 88% 0.00in /  0mm 0 W/m2
01:09 69.6 °F /  20.9 °C 65.9 °F /  18.8 °C 30.00in /  1015.8hPa NNW 0.2mph /  0.3km/h 6mph /  9.7km/h 88% 0.00in /  0mm 0 W/m2
01:14 69.5 °F /  20.8 °C 65.8 °F /  18.8 °C 30.01in /  1016.1hPa North 0.5mph /  0.8km/h 6mph /  9.7km/h 88% 0.00in /  0mm 0 W/m2
01:19 69.4 °F /  20.8 °C 65.7 °F /  18.7 °C 30.01in /  1016.1hPa North 0.3mph /  0.5km/h 6mph /  9.7km/h 88% 0.00in /  0mm 0 W/m2
01:24 69.2 °F /  20.7 °C 65.5 °F /  18.6 °C 30.01in /  1016.1hPa North 1.2mph /  1.9km/h 6mph /  9.7km/h 88% 0.00in /  0mm 0 W/m2
01:29 69.1 °F /  20.6 °C 65.3 °F /  18.5 °C 30.01in /  1016.1hPa NNW 1.4mph /  2.3km/h 6mph /  9.7km/h 87.7% 0.00in /  0mm 0 W/m2
01:34 69 °F /  20.6 °C 65 °F /  18.3 °C 30.01in /  1016.1hPa North 1mph /  1.6km/h 6mph /  9.7km/h 87% 0.00in /  0mm 0 W/m2
01:39 69 °F /  20.6 °C 64.9 °F /  18.3 °C 30.01in /  1016.1hPa NNW 0.8mph /  1.3km/h 5mph /  8km/h 87% 0.00in /  0mm 0 W/m2
01:44 68.9 °F /  20.5 °C 64.9 °F /  18.3 °C 30.01in /  1016.1hPa NNW 0.5mph /  0.8km/h 5mph /  8km/h 87% 0.00in /  0mm 0 W/m2
01:49 68.8 °F /  20.4 °C 64.8 °F /  18.2 °C 30.01in /  1016.1hPa NNW 0.2mph /  0.3km/h 5mph /  8km/h 87% 0.00in /  0mm 0 W/m2
01:54 68.7 °F /  20.4 °C 64.5 °F /  18.1 °C 30.01in /  1016.1hPa NNW 0.2mph /  0.3km/h 5mph /  8km/h 86.5% 0.00in /  0mm 0 W/m2
01:59 68.6 °F /  20.3 °C 64.2 °F /  17.9 °C 30.01in /  1016.1hPa NNW 0.1mph /  0.2km/h 5mph /  8km/h 86% 0.00in /  0mm 0 W/m2
02:04 68.4 °F /  20.2 °C 64.1 °F /  17.8 °C 30.01in /  1016.1hPa NNW 0.8mph /  1.3km/h 5mph /  8km/h 86% 0.00in /  0mm 0 W/m2
02:09 68.3 °F /  20.2 °C 63.9 °F /  17.7 °C 30.01in /  1016.1hPa NW 0.7mph /  1.1km/h 5mph /  8km/h 86% 0.00in /  0mm 0 W/m2
02:14 68.1 °F /  20.1 °C 63.6 °F /  17.6 °C 30.01in /  1016.1hPa NW 0.3mph /  0.5km/h 5mph /  8km/h 85.5% 0.00in /  0mm 0 W/m2
02:19 68 °F /  20 °C 63.3 °F /  17.4 °C 30.01in /  1016.1hPa NNW 0.3mph /  0.5km/h 5mph /  8km/h 85% 0.00in /  0mm 0 W/m2
02:24 67.8 °F /  19.9 °C 63.2 °F /  17.3 °C 30.01in /  1016.1hPa NNW 0.2mph /  0.3km/h 5mph /  8km/h 85% 0.00in /  0mm 0 W/m2
02:29 67.7 °F /  19.8 °C 63 °F /  17.2 °C 30.01in /  1016.1hPa Calm   5mph /  8km/h 85% 0.00in /  0mm 0 W/m2
02:34 67.5 °F /  19.7 °C 62.9 °F /  17.2 °C 30.01in /  1016.1hPa NNW 0.4mph /  0.6km/h 5mph /  8km/h 85% 0.00in /  0mm 0 W/m2
02:39 67.4 °F /  19.7 °C 62.9 °F /  17.2 °C 30.01in /  1016.1hPa NNW 0.3mph /  0.5km/h 4mph /  6.4km/h 85.5% 0.00in /  0mm 0 W/m2
02:44 67.2 °F /  19.6 °C 62.9 °F /  17.2 °C 30.01in /  1016.1hPa NNW 0.3mph /  0.5km/h 4mph /  6.4km/h 86% 0.00in /  0mm 0 W/m2
02:49 67 °F /  19.4 °C 62.7 °F /  17.1 °C 30.01in /  1016.1hPa NNW 0.1mph /  0.2km/h 4mph /  6.4km/h 86% 0.00in /  0mm 0 W/m2
02:54 66.8 °F /  19.3 °C 62.4 °F /  16.9 °C 30.01in /  1016.1hPa NNW 0.5mph /  0.8km/h 6mph /  9.7km/h 85.8% 0.00in /  0mm 0 W/m2
02:59 66.6 °F /  19.2 °C 62 °F /  16.7 °C 30.01in /  1016.1hPa NNW 0.5mph /  0.8km/h 6mph /  9.7km/h 85% 0.00in /  0mm 0 W/m2
03:04 66.5 °F /  19.2 °C 61.8 °F /  16.6 °C 30.01in /  1016.1hPa NNW 0.2mph /  0.3km/h 6mph /  9.7km/h 85% 0.00in /  0mm 0 W/m2
03:09 66.3 °F /  19.1 °C 61.6 °F /  16.4 °C 30.01in /  1016.1hPa NNW 0.8mph /  1.3km/h 5mph /  8km/h 85% 0.00in /  0mm 0 W/m2
03:14 66.1 °F /  18.9 °C 61.5 °F /  16.4 °C 30.01in /  1016.1hPa NNW 0.1mph /  0.2km/h 5mph /  8km/h 85% 0.00in /  0mm 0 W/m2
03:19 66 °F /  18.9 °C 61.4 °F /  16.3 °C 30.01in /  1016.1hPa NNW 0.6mph /  1km/h 5mph /  8km/h 85% 0.00in /  0mm 0 W/m2
03:24 65.9 °F /  18.8 °C 61.3 °F /  16.3 °C 30.01in /  1016.1hPa NNW 0.5mph /  0.8km/h 5mph /  8km/h 85% 0.00in /  0mm 0 W/m2
03:29 65.8 °F /  18.8 °C 61.2 °F /  16.2 °C 30.01in /  1016.1hPa NNW 0.3mph /  0.5km/h 5mph /  8km/h 85% 0.00in /  0mm 0 W/m2
03:34 65.7 °F /  18.7 °C 61.1 °F /  16.2 °C 30.01in /  1016.1hPa NNW 0.1mph /  0.2km/h 5mph /  8km/h 85% 0.00in /  0mm 0 W/m2
03:39 65.6 °F /  18.7 °C 61.3 °F /  16.3 °C 30.02in /  1016.5hPa Calm   2mph /  3.2km/h 86% 0.00in /  0mm 0 W/m2
03:44 65.5 °F /  18.6 °C 61.2 °F /  16.2 °C 30.02in /  1016.5hPa Calm   2mph /  3.2km/h 86% 0.00in /  0mm 0 W/m2
03:49 65.4 °F /  18.6 °C 61.1 °F /  16.2 °C 30.02in /  1016.5hPa NNW 0.4mph /  0.6km/h 3mph /  4.8km/h 86% 0.00in /  0mm 0 W/m2
03:54 65.2 °F /  18.4 °C 60.9 °F /  16.1 °C 30.02in /  1016.5hPa NNW 0.1mph /  0.2km/h 3mph /  4.8km/h 86% 0.00in /  0mm 0 W/m2
03:59 65.1 °F /  18.4 °C 61 °F /  16.1 °C 30.02in /  1016.5hPa NNW 0.6mph /  1km/h 4mph /  6.4km/h 86.6% 0.00in /  0mm 0 W/m2
04:09 64.7 °F /  18.2 °C 60.8 °F /  16 °C 30.03in /  1016.8hPa NNW 0.2mph /  0.3km/h 3mph /  4.8km/h 87% 0.00in /  0mm 0 W/m2
04:14 64.5 °F /  18.1 °C 60.6 °F /  15.9 °C 30.02in /  1016.5hPa NW 1mph /  1.6km/h 7mph /  11.3km/h 87% 0.00in /  0mm 0 W/m2
04:19 64.4 °F /  18 °C 60.5 °F /  15.8 °C 30.03in /  1016.8hPa NW 1mph /  1.6km/h 7mph /  11.3km/h 87% 0.00in /  0mm 0 W/m2
04:24 64.3 °F /  17.9 °C 60.3 °F /  15.7 °C 30.03in /  1016.8hPa NNW 0.7mph /  1.1km/h 7mph /  11.3km/h 87% 0.00in /  0mm 0 W/m2
04:29 64.2 °F /  17.9 °C 60 °F /  15.6 °C 30.03in /  1016.8hPa NNW 0.7mph /  1.1km/h 7mph /  11.3km/h 86.4% 0.00in /  0mm 0 W/m2
04:34 64.1 °F /  17.8 °C 59.8 °F /  15.4 °C 30.03in /  1016.8hPa NNW 0.8mph /  1.3km/h 7mph /  11.3km/h 86% 0.00in /  0mm 0 W/m2
04:39 64 °F /  17.8 °C 59.6 °F /  15.3 °C 30.03in /  1016.8hPa NNW 0.5mph /  0.8km/h 6mph /  9.7km/h 85.7% 0.00in /  0mm 0 W/m2
04:44 63.9 °F /  17.7 °C 59.5 °F /  15.3 °C 30.03in /  1016.8hPa NW 0.3mph /  0.5km/h 6mph /  9.7km/h 85.7% 0.00in /  0mm 0 W/m2
04:49 63.8 °F /  17.7 °C 59.2 °F /  15.1 °C 30.03in /  1016.8hPa NW 0.3mph /  0.5km/h 6mph /  9.7km/h 85.1% 0.00in /  0mm 0 W/m2
04:54 63.6 °F /  17.6 °C 59 °F /  15 °C 30.03in /  1016.8hPa NW 0.1mph /  0.2km/h 6mph /  9.7km/h 85% 0.00in /  0mm 0 W/m2
04:59 63.4 °F /  17.4 °C 58.9 °F /  14.9 °C 30.03in /  1016.8hPa Calm   6mph /  9.7km/h 85% 0.00in /  0mm 0 W/m2
05:04 63.3 °F /  17.4 °C 58.7 °F /  14.8 °C 30.04in /  1017.2hPa Calm   6mph /  9.7km/h 85% 0.00in /  0mm 0 W/m2
05:09 63.1 °F /  17.3 °C 58.6 °F /  14.8 °C 30.03in /  1016.8hPa NNW 0.4mph /  0.6km/h 5mph /  8km/h 85% 0.00in /  0mm 0 W/m2
05:14 63 °F /  17.2 °C 58.4 °F /  14.7 °C 30.04in /  1017.2hPa NNW 0.2mph /  0.3km/h 5mph /  8km/h 85% 0.00in /  0mm 0 W/m2
05:19 62.9 °F /  17.2 °C 58.4 °F /  14.7 °C 30.04in /  1017.2hPa NNW 0.3mph /  0.5km/h 5mph /  8km/h 85.4% 0.00in /  0mm 0 W/m2
05:24 62.7 °F /  17.1 °C 58.5 °F /  14.7 °C 30.04in /  1017.2hPa NNW 0.5mph /  0.8km/h 5mph /  8km/h 86% 0.00in /  0mm 0 W/m2
05:29 62.6 °F /  17 °C 58.7 °F /  14.8 °C 30.05in /  1017.5hPa NNW 0.5mph /  0.8km/h 6mph /  9.7km/h 86.8% 0.00in /  0mm 0 W/m2
05:34 62.5 °F /  16.9 °C 58.6 °F /  14.8 °C 30.04in /  1017.2hPa NW 0.2mph /  0.3km/h 6mph /  9.7km/h 87% 0.00in /  0mm 0 W/m2
05:39 62.4 °F /  16.9 °C 58.5 °F /  14.7 °C 30.04in /  1017.2hPa NW 0.4mph /  0.6km/h 5mph /  8km/h 87% 0.00in /  0mm 0 W/m2
05:44 62.3 °F /  16.8 °C 58.3 °F /  14.6 °C 30.05in /  1017.5hPa NW 0.6mph /  1km/h 5mph /  8km/h 87% 0.00in /  0mm 0 W/m2
05:49 62.1 °F /  16.7 °C 58.2 °F /  14.6 °C 30.05in /  1017.5hPa Calm   5mph /  8km/h 87% 0.00in /  0mm 0 W/m2
05:54 62 °F /  16.7 °C 58.1 °F /  14.5 °C 30.05in /  1017.5hPa NW 0.5mph /  0.8km/h 5mph /  8km/h 87% 0.00in /  0mm 0 W/m2
05:59 61.8 °F /  16.6 °C 57.9 °F /  14.4 °C 30.06in /  1017.8hPa Calm   5mph /  8km/h 87% 0.00in /  0mm 0 W/m2
06:04 61.7 °F /  16.5 °C 57.8 °F /  14.3 °C 30.06in /  1017.8hPa NW 0.6mph /  1km/h 5mph /  8km/h 87% 0.00in /  0mm 0 W/m2
06:09 61.5 °F /  16.4 °C 57.3 °F /  14.1 °C 30.06in /  1017.8hPa North 0.2mph /  0.3km/h 5mph /  8km/h 86% 0.00in /  0mm 0 W/m2
06:14 61.4 °F /  16.3 °C 57.2 °F /  14 °C 30.06in /  1017.8hPa NW 0.4mph /  0.6km/h 7mph /  11.3km/h 86% 0.00in /  0mm 0 W/m2
06:19 61.2 °F /  16.2 °C 57 °F /  13.9 °C 30.06in /  1017.8hPa NW 0.4mph /  0.6km/h 7mph /  11.3km/h 86% 0.00in /  0mm 0 W/m2
06:24 61.1 °F /  16.2 °C 56.7 °F /  13.7 °C 30.06in /  1017.8hPa NW 0.8mph /  1.3km/h 7mph /  11.3km/h 85.3% 0.00in /  0mm 0 W/m2
06:29 61 °F /  16.1 °C 56.5 °F /  13.6 °C 30.06in /  1017.8hPa NW 0.5mph /  0.8km/h 7mph /  11.3km/h 85% 0.00in /  0mm 0 W/m2
06:34 60.9 °F /  16.1 °C 56.1 °F /  13.4 °C 30.06in /  1017.8hPa NW 0.2mph /  0.3km/h 7mph /  11.3km/h 84.2% 0.00in /  0mm 0 W/m2
06:39 60.8 °F /  16 °C 55.8 °F /  13.2 °C 30.07in /  1018.2hPa NW 0.6mph /  1km/h 5mph /  8km/h 83.6% 0.00in /  0mm 0 W/m2
06:44 60.7 °F /  15.9 °C 55.5 °F /  13.1 °C 30.07in /  1018.2hPa NW 0.9mph /  1.4km/h 7mph /  11.3km/h 83% 0.00in /  0mm 5 W/m2
06:49 60.7 °F /  15.9 °C 55.2 °F /  12.9 °C 30.07in /  1018.2hPa NW 1.4mph /  2.3km/h 7mph /  11.3km/h 82% 0.00in /  0mm 5 W/m2
06:54 60.6 °F /  15.9 °C 55.1 °F /  12.8 °C 30.08in /  1018.5hPa NNW 1.1mph /  1.8km/h 7mph /  11.3km/h 82% 0.00in /  0mm 7 W/m2
06:59 60.6 °F /  15.9 °C 54.9 °F /  12.7 °C 30.08in /  1018.5hPa NNW 0.8mph /  1.3km/h 7mph /  11.3km/h 81.4% 0.00in /  0mm 9 W/m2
07:04 60.6 °F /  15.9 °C 54.7 °F /  12.6 °C 30.08in /  1018.5hPa NNW 0.6mph /  1km/h 7mph /  11.3km/h 81% 0.00in /  0mm 11 W/m2
07:09 60.6 °F /  15.9 °C 54.8 °F /  12.7 °C 30.08in /  1018.5hPa NNW 0.5mph /  0.8km/h 6mph /  9.7km/h 81% 0.00in /  0mm 11 W/m2
07:14 60.6 °F /  15.9 °C 54.7 °F /  12.6 °C 30.09in /  1018.8hPa NNW 0.2mph /  0.3km/h 6mph /  9.7km/h 81% 0.00in /  0mm 12 W/m2
07:19 60.5 °F /  15.8 °C 54.7 °F /  12.6 °C 30.09in /  1018.8hPa Calm   6mph /  9.7km/h 81% 0.00in /  0mm 14 W/m2
07:24 60.5 °F /  15.8 °C 54.7 °F /  12.6 °C 30.09in /  1018.8hPa Calm   6mph /  9.7km/h 81% 0.00in /  0mm 14 W/m2
07:29 60.5 °F /  15.8 °C 54.7 °F /  12.6 °C 30.10in /  1019.2hPa NNW 0.1mph /  0.2km/h 6mph /  9.7km/h 81% 0.00in /  0mm 16 W/m2
07:34 60.5 °F /  15.8 °C 54.7 °F /  12.6 °C 30.10in /  1019.2hPa NW 0.4mph /  0.6km/h 6mph /  9.7km/h 81% 0.00in /  0mm 16 W/m2
07:39 60.6 °F /  15.9 °C 54.8 °F /  12.7 °C 30.10in /  1019.2hPa NNW 0.4mph /  0.6km/h 6mph /  9.7km/h 81% 0.00in /  0mm 18 W/m2
07:44 60.7 °F /  15.9 °C 54.7 °F /  12.6 °C 30.11in /  1019.5hPa NNW 0.2mph /  0.3km/h 6mph /  9.7km/h 80.5% 0.00in /  0mm 18 W/m2
07:49 60.8 °F /  16 °C 54.6 °F /  12.6 °C 30.11in /  1019.5hPa NNW 0.1mph /  0.2km/h 6mph /  9.7km/h 80% 0.00in /  0mm 19 W/m2
07:54 61 °F /  16.1 °C 54.6 °F /  12.6 °C 30.11in /  1019.5hPa NNW 0.8mph /  1.3km/h 6mph /  9.7km/h 79.5% 0.00in /  0mm 40 W/m2
07:59 61.2 °F /  16.2 °C 54.6 °F /  12.6 °C 30.11in /  1019.5hPa NNW 0.1mph /  0.2km/h 6mph /  9.7km/h 79% 0.00in /  0mm 28 W/m2
08:04 61.3 °F /  16.3 °C 54.4 °F /  12.4 °C 30.11in /  1019.5hPa Calm     78% 0.00in /  0mm 86 W/m2
08:09 61.5 °F /  16.4 °C 54.8 °F /  12.7 °C 30.11in /  1019.5hPa North 0.3mph /  0.5km/h 4mph /  6.4km/h 78.6% 0.00in /  0mm 90 W/m2
08:14 61.8 °F /  16.6 °C 55.1 °F /  12.8 °C 30.11in /  1019.5hPa NNW 0.7mph /  1.1km/h 6mph /  9.7km/h 78.8% 0.00in /  0mm 97 W/m2
08:19 62.1 °F /  16.7 °C 54.8 °F /  12.7 °C 30.11in /  1019.5hPa North 0.6mph /  1km/h 6mph /  9.7km/h 77% 0.00in /  0mm 77 W/m2
08:24 62.3 °F /  16.8 °C 54.9 °F /  12.7 °C 30.11in /  1019.5hPa North 0.4mph /  0.6km/h 6mph /  9.7km/h 76.9% 0.00in /  0mm 60 W/m2
08:29 62.3 °F /  16.8 °C 54.7 °F /  12.6 °C 30.12in /  1019.9hPa NNW 0.2mph /  0.3km/h 6mph /  9.7km/h 76% 0.00in /  0mm 91 W/m2
08:34 62.4 °F /  16.9 °C 54.8 °F /  12.7 °C 30.12in /  1019.9hPa Calm   6mph /  9.7km/h 76.1% 0.00in /  0mm 100 W/m2
08:39 62.5 °F /  16.9 °C 54.7 °F /  12.6 °C 30.12in /  1019.9hPa NNE 0.4mph /  0.6km/h 4mph /  6.4km/h 75.6% 0.00in /  0mm 79 W/m2
08:44 62.6 °F /  17 °C 54.8 °F /  12.7 °C 30.12in /  1019.9hPa North 0.3mph /  0.5km/h 6mph /  9.7km/h 75.5% 0.00in /  0mm 88 W/m2
08:49 62.8 °F /  17.1 °C 54.8 °F /  12.7 °C 30.12in /  1019.9hPa NNE 0.5mph /  0.8km/h 6mph /  9.7km/h 75.2% 0.00in /  0mm 93 W/m2
08:54 63.1 °F /  17.3 °C 54.8 °F /  12.7 °C 30.12in /  1019.9hPa NE 0.6mph /  1km/h 7mph /  11.3km/h 74.3% 0.00in /  0mm 158 W/m2
08:59 63.5 °F /  17.5 °C 55 °F /  12.8 °C 30.12in /  1019.9hPa NNW 1.5mph /  2.4km/h 10mph /  16.1km/h 73.8% 0.00in /  0mm 408 W/m2
09:04 64 °F /  17.8 °C 55.3 °F /  12.9 °C 30.12in /  1019.9hPa NNE 0.4mph /  0.6km/h 10mph /  16.1km/h 73.1% 0.00in /  0mm 415 W/m2
09:09 64.9 °F /  18.3 °C 55.9 °F /  13.3 °C 30.12in /  1019.9hPa NNE 0.3mph /  0.5km/h 5mph /  8km/h 72.6% 0.00in /  0mm 464 W/m2
09:14 65.8 °F /  18.8 °C 55.6 °F /  13.1 °C 30.12in /  1019.9hPa NNW 0.8mph /  1.3km/h 9mph /  14.5km/h 69.7% 0.00in /  0mm 485 W/m2
09:19 66.7 °F /  19.3 °C 56.1 °F /  13.4 °C 30.12in /  1019.9hPa NNW 1mph /  1.6km/h 9mph /  14.5km/h 68.5% 0.00in /  0mm 504 W/m2
09:24 67.8 °F /  19.9 °C 56.6 °F /  13.7 °C 30.12in /  1019.9hPa NW 2.3mph /  3.7km/h 10mph /  16.1km/h 67.4% 0.00in /  0mm 524 W/m2
09:29 68.6 °F /  20.3 °C 56 °F /  13.3 °C 30.12in /  1019.9hPa NNW 0.8mph /  1.3km/h 10mph /  16.1km/h 63.9% 0.00in /  0mm 538 W/m2
09:34 69.1 °F /  20.6 °C 56.1 °F /  13.4 °C 30.13in /  1020.2hPa ENE 1.9mph /  3.1km/h 11mph /  17.7km/h 63.2% 0.00in /  0mm 550 W/m2
09:39 69.3 °F /  20.7 °C 55.3 °F /  12.9 °C 30.13in /  1020.2hPa ENE 1mph /  1.6km/h 11mph /  17.7km/h 61.1% 0.00in /  0mm 557 W/m2
09:44 69.4 °F /  20.8 °C 55.5 °F /  13.1 °C 30.13in /  1020.2hPa NNE 1.8mph /  2.9km/h 11mph /  17.7km/h 61.3% 0.00in /  0mm 571 W/m2
09:49 69.5 °F /  20.8 °C 55.6 °F /  13.1 °C 30.13in /  1020.2hPa NE 1.7mph /  2.7km/h 11mph /  17.7km/h 61.1% 0.00in /  0mm 584 W/m2
09:54 69.7 °F /  20.9 °C 56 °F /  13.3 °C 30.13in /  1020.2hPa ENE 0.7mph /  1.1km/h 11mph /  17.7km/h 61.6% 0.00in /  0mm 601 W/m2
09:59 70 °F /  21.1 °C 55.7 °F /  13.2 °C 30.13in /  1020.2hPa ENE 1.8mph /  2.9km/h 11mph /  17.7km/h 60.4% 0.00in /  0mm 615 W/m2
10:04 70.3 °F /  21.3 °C 55.1 °F /  12.8 °C 30.13in /  1020.2hPa ENE 2.5mph /  4km/h 11mph /  17.7km/h 58.6% 0.00in /  0mm 628 W/m2
10:09 70.3 °F /  21.3 °C 55.3 °F /  12.9 °C 30.13in /  1020.2hPa NNE 1.6mph /  2.6km/h 12mph /  19.3km/h 59% 0.00in /  0mm 636 W/m2
10:14 70.7 °F /  21.5 °C 56.5 °F /  13.6 °C 30.13in /  1020.2hPa North 2.2mph /  3.5km/h 12mph /  19.3km/h 60.6% 0.00in /  0mm 650 W/m2
10:19 71.4 °F /  21.9 °C 56.4 °F /  13.6 °C 30.13in /  1020.2hPa NNW 1.3mph /  2.1km/h 12mph /  19.3km/h 59.1% 0.00in /  0mm 657 W/m2
10:24 72.1 °F /  22.3 °C 57.2 °F /  14 °C 30.13in /  1020.2hPa North 1.3mph /  2.1km/h 12mph /  19.3km/h 59.3% 0.00in /  0mm 668 W/m2
10:29 72.8 °F /  22.7 °C 56.4 °F /  13.6 °C 30.13in /  1020.2hPa North 2.1mph /  3.4km/h 12mph /  19.3km/h 56.4% 0.00in /  0mm 684 W/m2
10:34 73.2 °F /  22.9 °C 56.1 °F /  13.4 °C 30.13in /  1020.2hPa NNE 2.6mph /  4.2km/h 12mph /  19.3km/h 55.2% 0.00in /  0mm 693 W/m2
10:39 72.9 °F /  22.7 °C 55.2 °F /  12.9 °C 30.13in /  1020.2hPa ENE 1.2mph /  1.9km/h 10mph /  16.1km/h 53.8% 0.00in /  0mm 701 W/m2
10:44 72.7 °F /  22.6 °C 55.4 °F /  13 °C 30.13in /  1020.2hPa ENE 1.6mph /  2.6km/h 10mph /  16.1km/h 54.6% 0.00in /  0mm 714 W/m2
10:49 73 °F /  22.8 °C 55.5 °F /  13.1 °C 30.13in /  1020.2hPa NE 2.3mph /  3.7km/h 11mph /  17.7km/h 54.3% 0.00in /  0mm 721 W/m2
10:54 73.1 °F /  22.8 °C 54.9 °F /  12.7 °C 30.13in /  1020.2hPa ENE 3.4mph /  5.5km/h 11mph /  17.7km/h 52.9% 0.00in /  0mm 729 W/m2
10:59 73.1 °F /  22.8 °C 55 °F /  12.8 °C 30.13in /  1020.2hPa East 2.9mph /  4.7km/h 11mph /  17.7km/h 53.1% 0.00in /  0mm 737 W/m2
11:04 72.9 °F /  22.7 °C 54.6 °F /  12.6 °C 30.13in /  1020.2hPa ENE 2.8mph /  4.5km/h 12mph /  19.3km/h 52.6% 0.00in /  0mm 749 W/m2
11:09 73.1 °F /  22.8 °C 54.5 °F /  12.5 °C 30.13in /  1020.2hPa ENE 2.9mph /  4.7km/h 12mph /  19.3km/h 52.2% 0.00in /  0mm 758 W/m2
11:14 73.2 °F /  22.9 °C 54.7 °F /  12.6 °C 30.14in /  1020.5hPa ENE 3.5mph /  5.6km/h 12mph /  19.3km/h 52.3% 0.00in /  0mm 768 W/m2
11:19 73.3 °F /  22.9 °C 54.8 °F /  12.7 °C 30.14in /  1020.5hPa ENE 2.4mph /  3.9km/h 12mph /  19.3km/h 52.4% 0.00in /  0mm 773 W/m2
11:24 73.4 °F /  23 °C 54.5 °F /  12.5 °C 30.14in /  1020.5hPa ENE 2.3mph /  3.7km/h 12mph /  19.3km/h 51.6% 0.00in /  0mm 780 W/m2
11:29 73.1 °F /  22.8 °C 54.7 °F /  12.6 °C 30.14in /  1020.5hPa ENE 2.4mph /  3.9km/h 12mph /  19.3km/h 52.3% 0.00in /  0mm 788 W/m2
11:34 73 °F /  22.8 °C 55 °F /  12.8 °C 30.14in /  1020.5hPa ENE 3mph /  4.8km/h 12mph /  19.3km/h 53.1% 0.00in /  0mm 789 W/m2
11:39 73 °F /  22.8 °C 55.5 °F /  13.1 °C 30.14in /  1020.5hPa NE 1.8mph /  2.9km/h 11mph /  17.7km/h 54.2% 0.00in /  0mm 788 W/m2
11:44 73.1 °F /  22.8 °C 55.2 °F /  12.9 °C 30.14in /  1020.5hPa ENE 2.2mph /  3.5km/h 11mph /  17.7km/h 53.4% 0.00in /  0mm 225 W/m2
11:49 72.8 °F /  22.7 °C 55.1 °F /  12.8 °C 30.14in /  1020.5hPa East 0.6mph /  1km/h 11mph /  17.7km/h 53.6% 0.00in /  0mm 236 W/m2
11:54 72.4 °F /  22.4 °C 54.5 °F /  12.5 °C 30.14in /  1020.5hPa ENE 1.7mph /  2.7km/h 11mph /  17.7km/h 53.3% 0.00in /  0mm 390 W/m2
11:59 72.1 °F /  22.3 °C 55.3 °F /  12.9 °C 30.14in /  1020.5hPa NE 1mph /  1.6km/h 11mph /  17.7km/h 55.5% 0.00in /  0mm 62 W/m2
12:00 72 °F /  22.2 °C 55.5 °F /  13.1 °C 30.13in /  1020.2hPa NE 5mph /  8km/h 11mph /  17.7km/h 56% 0.00in /  0mm 54 W/m2
12:09 71.8 °F /  22.1 °C 55.2 °F /  12.9 °C 30.14in /  1020.5hPa NNE 1mph /  1.6km/h 7mph /  11.3km/h 55.7% 0.00in /  0mm 54 W/m2
12:14 71.7 °F /  22.1 °C 54.1 °F /  12.3 °C 30.14in /  1020.5hPa ENE 1mph /  1.6km/h 7mph /  11.3km/h 53.8% 0.00in /  0mm 42 W/m2
12:19 71.5 °F /  21.9 °C 54.6 °F /  12.6 °C 30.14in /  1020.5hPa North 0.2mph /  0.3km/h 7mph /  11.3km/h 55.2% 0.00in /  0mm 202 W/m2
12:24 71.6 °F /  22 °C 54.7 °F /  12.6 °C 30.14in /  1020.5hPa North 1.4mph /  2.3km/h 9mph /  14.5km/h 55.2% 0.00in /  0mm 244 W/m2
12:29 71.8 °F /  22.1 °C 54.6 °F /  12.6 °C 30.14in /  1020.5hPa East 0.3mph /  0.5km/h 9mph /  14.5km/h 54.7% 0.00in /  0mm 459 W/m2
12:34 72 °F /  22.2 °C 55.1 °F /  12.8 °C 30.14in /  1020.5hPa North 0.9mph /  1.4km/h 9mph /  14.5km/h 55.3% 0.00in /  0mm 211 W/m2
12:39 72.2 °F /  22.3 °C 55.9 °F /  13.3 °C 30.14in /  1020.5hPa NE 1.7mph /  2.7km/h 11mph /  17.7km/h 56.5% 0.00in /  0mm 174 W/m2
12:44 72.4 °F /  22.4 °C 55 °F /  12.8 °C 30.14in /  1020.5hPa NE 1.8mph /  2.9km/h 11mph /  17.7km/h 54.4% 0.00in /  0mm 111 W/m2
12:49 72.3 °F /  22.4 °C 55.9 °F /  13.3 °C 30.14in /  1020.5hPa NNW 0.9mph /  1.4km/h 11mph /  17.7km/h 56.3% 0.00in /  0mm 40 W/m2
12:54 72.3 °F /  22.4 °C 55 °F /  12.8 °C 30.14in /  1020.5hPa NE 3mph /  4.8km/h 12mph /  19.3km/h 54.6% 0.00in /  0mm 167 W/m2
12:59 72.2 °F /  22.3 °C 54.4 °F /  12.4 °C 30.14in /  1020.5hPa ENE 2.1mph /  3.4km/h 13mph /  20.9km/h 53.6% 0.00in /  0mm 167 W/m2
13:04 72.1 °F /  22.3 °C 54.1 °F /  12.3 °C 30.14in /  1020.5hPa NNW 2.2mph /  3.5km/h 13mph /  20.9km/h 53.2% 0.00in /  0mm 167 W/m2
13:09 72.2 °F /  22.3 °C 54.2 °F /  12.3 °C 30.14in /  1020.5hPa North 1mph /  1.6km/h 10mph /  16.1km/h 53% 0.00in /  0mm 183 W/m2
13:14 72.2 °F /  22.3 °C 53.8 °F /  12.1 °C 30.14in /  1020.5hPa NNE 0.5mph /  0.8km/h 10mph /  16.1km/h 52.3% 0.00in /  0mm 97 W/m2
13:19 72.1 °F /  22.3 °C 54.4 °F /  12.4 °C 30.13in /  1020.2hPa NE 3.1mph /  5km/h 11mph /  17.7km/h 53.7% 0.00in /  0mm 169 W/m2
13:24 72.2 °F /  22.3 °C 54.7 °F /  12.6 °C 30.13in /  1020.2hPa NW 1.1mph /  1.8km/h 11mph /  17.7km/h 54.1% 0.00in /  0mm 69 W/m2
13:29 72.3 °F /  22.4 °C 54.9 °F /  12.7 °C 30.13in /  1020.2hPa NE 2.1mph /  3.4km/h 11mph /  17.7km/h 54.2% 0.00in /  0mm 49 W/m2
13:34 72.4 °F /  22.4 °C 54.4 °F /  12.4 °C 30.13in /  1020.2hPa NNE 0.8mph /  1.3km/h 11mph /  17.7km/h 53.1% 0.00in /  0mm 65 W/m2
13:39 72.4 °F /  22.4 °C 54.9 °F /  12.7 °C 30.12in /  1019.9hPa NE 2.4mph /  3.9km/h 9mph /  14.5km/h 54% 0.00in /  0mm 102 W/m2
13:44 72.5 °F /  22.5 °C 54.8 °F /  12.7 °C 30.12in /  1019.9hPa North 0.8mph /  1.3km/h 9mph /  14.5km/h 53.7% 0.00in /  0mm 77 W/m2
13:49 72.5 °F /  22.5 °C 54.5 °F /  12.5 °C 30.12in /  1019.9hPa ENE 1.2mph /  1.9km/h 9mph /  14.5km/h 53.2% 0.00in /  0mm 42 W/m2
13:54 72.6 °F /  22.6 °C 54.8 °F /  12.7 °C 30.12in /  1019.9hPa NNW 1.1mph /  1.8km/h 10mph /  16.1km/h 53.6% 0.00in /  0mm 42 W/m2
13:59 72.7 °F /  22.6 °C 55.3 °F /  12.9 °C 30.12in /  1019.9hPa NNW 1.1mph /  1.8km/h 10mph /  16.1km/h 54.3% 0.00in /  0mm 46 W/m2
14:04 72.8 °F /  22.7 °C 54.7 °F /  12.6 °C 30.12in /  1019.9hPa East 0.5mph /  0.8km/h 10mph /  16.1km/h 53.1% 0.00in /  0mm 51 W/m2
14:09 72.9 °F /  22.7 °C 55 °F /  12.8 °C 30.12in /  1019.9hPa NNW 0.9mph /  1.4km/h 6mph /  9.7km/h 53.4% 0.00in /  0mm 62 W/m2
14:14 72.9 °F /  22.7 °C 55.2 °F /  12.9 °C 30.12in /  1019.9hPa NW 1.5mph /  2.4km/h 7mph /  11.3km/h 53.8% 0.00in /  0mm 58 W/m2
14:19 73.1 °F /  22.8 °C 54.5 °F /  12.5 °C 30.12in /  1019.9hPa ENE 2.1mph /  3.4km/h 7mph /  11.3km/h 52.1% 0.00in /  0mm 60 W/m2
14:24 73 °F /  22.8 °C 53.9 °F /  12.2 °C 30.12in /  1019.9hPa NNW 2.2mph /  3.5km/h 8mph /  12.9km/h 51.2% 0.00in /  0mm 239 W/m2
14:29 73 °F /  22.8 °C 54.2 °F /  12.3 °C 30.12in /  1019.9hPa NNE 0.4mph /  0.6km/h 8mph /  12.9km/h 51.7% 0.00in /  0mm 165 W/m2
14:34 73 °F /  22.8 °C 53.2 °F /  11.8 °C 30.12in /  1019.9hPa NW 1.1mph /  1.8km/h 9mph /  14.5km/h 49.9% 0.00in /  0mm 70 W/m2
14:39 73.1 °F /  22.8 °C 53.2 °F /  11.8 °C 30.12in /  1019.9hPa NE 0.5mph /  0.8km/h 9mph /  14.5km/h 49.7% 0.00in /  0mm 142 W/m2
14:44 73.2 °F /  22.9 °C 53.6 °F /  12 °C 30.12in /  1019.9hPa NW 0.4mph /  0.6km/h 9mph /  14.5km/h 50.2% 0.00in /  0mm 97 W/m2
14:49 73.5 °F /  23.1 °C 53.7 °F /  12.1 °C 30.12in /  1019.9hPa North 0.2mph /  0.3km/h 9mph /  14.5km/h 50% 0.00in /  0mm 594 W/m2
14:54 73.6 °F /  23.1 °C 53.6 °F /  12 °C 30.12in /  1019.9hPa NE 0.2mph /  0.3km/h 9mph /  14.5km/h 49.5% 0.00in /  0mm 72 W/m2
14:59 73.6 °F /  23.1 °C 52.8 °F /  11.6 °C 30.12in /  1019.9hPa NE 0.1mph /  0.2km/h 9mph /  14.5km/h 48.2% 0.00in /  0mm 39 W/m2
15:04 73.5 °F /  23.1 °C 52.6 °F /  11.4 °C 30.12in /  1019.9hPa ENE 1.8mph /  2.9km/h 9mph /  14.5km/h 48% 0.00in /  0mm 37 W/m2
15:09 73.6 °F /  23.1 °C 52.4 °F /  11.3 °C 30.11in /  1019.5hPa North 0.3mph /  0.5km/h 8mph /  12.9km/h 47.5% 0.00in /  0mm 162 W/m2
15:14 73.7 °F /  23.2 °C 52.1 °F /  11.2 °C 30.11in /  1019.5hPa NW 2mph /  3.2km/h 9mph /  14.5km/h 46.8% 0.00in /  0mm 512 W/m2
15:19 73.9 °F /  23.3 °C 52 °F /  11.1 °C 30.11in /  1019.5hPa NE 1.3mph /  2.1km/h 9mph /  14.5km/h 46.3% 0.00in /  0mm 664 W/m2
15:24 74 °F /  23.3 °C 52.2 °F /  11.2 °C 30.11in /  1019.5hPa NNW 1.4mph /  2.3km/h 9mph /  14.5km/h 46.5% 0.00in /  0mm 647 W/m2
15:29 74 °F /  23.3 °C 51.5 °F /  10.8 °C 30.11in /  1019.5hPa NNW 0.5mph /  0.8km/h 9mph /  14.5km/h 45.2% 0.00in /  0mm 638 W/m2
15:34 74.2 °F /  23.4 °C 51.9 °F /  11.1 °C 30.11in /  1019.5hPa ENE 0.4mph /  0.6km/h 9mph /  14.5km/h 45.6% 0.00in /  0mm 633 W/m2
15:39 74.5 °F /  23.6 °C 51.6 °F /  10.9 °C 30.11in /  1019.5hPa NE 1.1mph /  1.8km/h 5mph /  8km/h 44.7% 0.00in /  0mm 626 W/m2
15:44 74.6 °F /  23.7 °C 51.7 °F /  10.9 °C 30.11in /  1019.5hPa NNW 0.9mph /  1.4km/h 5mph /  8km/h 44.7% 0.00in /  0mm 520 W/m2
15:49 74.7 °F /  23.7 °C 50.9 °F /  10.5 °C 30.11in /  1019.5hPa NE 0.4mph /  0.6km/h 5mph /  8km/h 43.2% 0.00in /  0mm 585 W/m2
15:54 74.7 °F /  23.7 °C 51.9 °F /  11.1 °C 30.11in /  1019.5hPa NNW 0.8mph /  1.3km/h 5mph /  8km/h 45% 0.00in /  0mm 557 W/m2
15:59 74.6 °F /  23.7 °C 51.7 °F /  10.9 °C 30.11in /  1019.5hPa ENE 0.3mph /  0.5km/h 5mph /  8km/h 44.7% 0.00in /  0mm 30 W/m2
16:00 74.5 °F /  23.6 °C 52.4 °F /  11.3 °C 30.11in /  1019.5hPa Calm   5mph /  8km/h 46% 0.00in /  0mm 30 W/m2
16:09 74.2 °F /  23.4 °C 52.2 °F /  11.2 °C 30.11in /  1019.5hPa NNE 0.2mph /  0.3km/h 4mph /  6.4km/h 46% 0.00in /  0mm 28 W/m2
16:14 74.1 °F /  23.4 °C 50.2 °F /  10.1 °C 30.11in /  1019.5hPa NNW 0.8mph /  1.3km/h 5mph /  8km/h 43% 0.00in /  0mm 28 W/m2
16:19 74.1 °F /  23.4 °C 49.7 °F /  9.8 °C 30.11in /  1019.5hPa NW 1.1mph /  1.8km/h 9mph /  14.5km/h 42.3% 0.00in /  0mm 26 W/m2
16:24 74 °F /  23.3 °C 49.2 °F /  9.6 °C 30.11in /  1019.5hPa NNW 1.1mph /  1.8km/h 9mph /  14.5km/h 41.6% 0.00in /  0mm 26 W/m2
16:29 74 °F /  23.3 °C 49.3 °F /  9.6 °C 30.11in /  1019.5hPa NNW 0.6mph /  1km/h 9mph /  14.5km/h 41.7% 0.00in /  0mm 26 W/m2
16:34 74 °F /  23.3 °C 50.2 °F /  10.1 °C 30.11in /  1019.5hPa NNW 0.2mph /  0.3km/h 9mph /  14.5km/h 43.1% 0.00in /  0mm 25 W/m2
16:39 74 °F /  23.3 °C 50.6 °F /  10.3 °C 30.11in /  1019.5hPa NW 0.9mph /  1.4km/h 9mph /  14.5km/h 43.7% 0.00in /  0mm 25 W/m2
16:44 74 °F /  23.3 °C 51 °F /  10.6 °C 30.11in /  1019.5hPa NNW 0.7mph /  1.1km/h 9mph /  14.5km/h 44.5% 0.00in /  0mm 25 W/m2
16:49 74 °F /  23.3 °C 50.8 °F /  10.4 °C 30.11in /  1019.5hPa NNE 0.3mph /  0.5km/h 9mph /  14.5km/h 44.1% 0.00in /  0mm 25 W/m2
16:54 73.9 °F /  23.3 °C 49.8 °F /  9.9 °C 30.10in /  1019.2hPa NE 0.1mph /  0.2km/h 9mph /  14.5km/h 42.6% 0.00in /  0mm 23 W/m2
16:59 73.9 °F /  23.3 °C 50.8 °F /  10.4 °C 30.10in /  1019.2hPa Calm   9mph /  14.5km/h 44.2% 0.00in /  0mm 23 W/m2
17:04 73.8 °F /  23.2 °C 50.2 °F /  10.1 °C 30.10in /  1019.2hPa NE 0.3mph /  0.5km/h 9mph /  14.5km/h 43.3% 0.00in /  0mm 23 W/m2
17:09 73.8 °F /  23.2 °C 50.4 °F /  10.2 °C 30.10in /  1019.2hPa Calm   2mph /  3.2km/h 43.8% 0.00in /  0mm 23 W/m2
17:14 73.8 °F /  23.2 °C 50.5 °F /  10.3 °C 30.10in /  1019.2hPa NE 0.5mph /  0.8km/h 3mph /  4.8km/h 44% 0.00in /  0mm 23 W/m2
17:19 73.7 °F /  23.2 °C 50.1 °F /  10.1 °C 30.10in /  1019.2hPa NE 0.3mph /  0.5km/h 3mph /  4.8km/h 43.5% 0.00in /  0mm 21 W/m2
17:24 73.6 °F /  23.1 °C 49.8 °F /  9.9 °C 30.10in /  1019.2hPa Calm   3mph /  4.8km/h 43.2% 0.00in /  0mm 21 W/m2
17:29 73.5 °F /  23.1 °C 50.5 °F /  10.3 °C 30.11in /  1019.5hPa Calm   3mph /  4.8km/h 44.4% 0.00in /  0mm 21 W/m2
17:34 73.5 °F /  23.1 °C 51.1 °F /  10.6 °C 30.11in /  1019.5hPa NNE 0.2mph /  0.3km/h 3mph /  4.8km/h 45.4% 0.00in /  0mm 19 W/m2
17:39 73.4 °F /  23 °C 50.8 °F /  10.4 °C 30.10in /  1019.2hPa Calm   2mph /  3.2km/h 45.1% 0.00in /  0mm 19 W/m2
17:44 73.3 °F /  22.9 °C 51.4 °F /  10.8 °C 30.11in /  1019.5hPa Calm   2mph /  3.2km/h 46.2% 0.00in /  0mm 19 W/m2
17:49 73.1 °F /  22.8 °C 51.1 °F /  10.6 °C 30.11in /  1019.5hPa Calm   2mph /  3.2km/h 46% 0.00in /  0mm 18 W/m2
17:54 72.9 °F /  22.7 °C 50.8 °F /  10.4 °C 30.11in /  1019.5hPa NE 0.3mph /  0.5km/h 3mph /  4.8km/h 45.7% 0.00in /  0mm 18 W/m2
17:59 72.7 °F /  22.6 °C 50.7 °F /  10.4 °C 30.11in /  1019.5hPa Calm   3mph /  4.8km/h 45.8% 0.00in /  0mm 16 W/m2
18:04 72.6 °F /  22.6 °C 50.3 °F /  10.2 °C 30.11in /  1019.5hPa Calm   3mph /  4.8km/h 45.5% 0.00in /  0mm 14 W/m2
18:09 72.4 °F /  22.4 °C 50.7 °F /  10.4 °C 30.11in /  1019.5hPa Calm     46.3% 0.00in /  0mm 14 W/m2
18:14 72.3 °F /  22.4 °C 50.8 °F /  10.4 °C 30.11in /  1019.5hPa Calm     46.8% 0.00in /  0mm 12 W/m2
18:19 72.1 °F /  22.3 °C 51.1 °F /  10.6 °C 30.12in /  1019.9hPa Calm     47.5% 0.00in /  0mm 11 W/m2
18:24 71.9 °F /  22.2 °C 50.9 °F /  10.5 °C 30.12in /  1019.9hPa Calm     47.4% 0.00in /  0mm 11 W/m2
18:29 71.7 °F /  22.1 °C 51 °F /  10.6 °C 30.12in /  1019.9hPa Calm     48% 0.00in /  0mm 9 W/m2
18:34 71.5 °F /  21.9 °C 51 °F /  10.6 °C 30.13in /  1020.2hPa Calm     48.4% 0.00in /  0mm 7 W/m2
18:39 71.3 °F /  21.8 °C 50.9 °F /  10.5 °C 30.13in /  1020.2hPa Calm     48.5% 0.00in /  0mm 5 W/m2
18:44 71 °F /  21.7 °C 51.1 °F /  10.6 °C 30.13in /  1020.2hPa Calm     49.3% 0.00in /  0mm 5 W/m2
18:49 70.8 °F /  21.6 °C 52.3 °F /  11.3 °C 30.13in /  1020.2hPa Calm     51.9% 0.00in /  0mm 0 W/m2
18:54 70.5 °F /  21.4 °C 53.2 °F /  11.8 °C 30.13in /  1020.2hPa Calm     54.3% 0.00in /  0mm 0 W/m2
18:59 70.3 °F /  21.3 °C 54.5 °F /  12.5 °C 30.13in /  1020.2hPa Calm     57.3% 0.00in /  0mm 0 W/m2
19:04 69.9 °F /  21.1 °C 55.2 °F /  12.9 °C 30.13in /  1020.2hPa Calm     59.4% 0.00in /  0mm 0 W/m2
19:09 69.6 °F /  20.9 °C 55.6 °F /  13.1 °C 30.13in /  1020.2hPa Calm     60.9% 0.00in /  0mm 0 W/m2
19:14 69.3 °F /  20.7 °C 55.8 °F /  13.2 °C 30.13in /  1020.2hPa Calm     62.2% 0.00in /  0mm 0 W/m2
19:19 68.9 °F /  20.5 °C 55.9 °F /  13.3 °C 30.13in /  1020.2hPa Calm     63.3% 0.00in /  0mm 0 W/m2
19:24 68.5 °F /  20.3 °C 56.3 °F /  13.5 °C 30.14in /  1020.5hPa Calm   1mph /  1.6km/h 65% 0.00in /  0mm 0 W/m2
19:29 68.1 °F /  20.1 °C 56.3 °F /  13.5 °C 30.14in /  1020.5hPa Calm   1mph /  1.6km/h 66.1% 0.00in /  0mm 0 W/m2
19:34 67.5 °F /  19.7 °C 56.2 °F /  13.4 °C 30.14in /  1020.5hPa Calm   1mph /  1.6km/h 67% 0.00in /  0mm 0 W/m2
19:39 67.1 °F /  19.5 °C 55.9 °F /  13.3 °C 30.14in /  1020.5hPa Calm     67.3% 0.00in /  0mm 0 W/m2
19:44 66.8 °F /  19.3 °C 56.1 °F /  13.4 °C 30.14in /  1020.5hPa Calm     68.5% 0.00in /  0mm 0 W/m2
19:49 66.4 °F /  19.1 °C 56.5 °F /  13.6 °C 30.15in /  1020.9hPa Calm     70.5% 0.00in /  0mm 0 W/m2
19:54 66 °F /  18.9 °C 56.6 °F /  13.7 °C 30.15in /  1020.9hPa Calm     71.6% 0.00in /  0mm 0 W/m2
19:59 65.6 °F /  18.7 °C 56.7 °F /  13.7 °C 30.15in /  1020.9hPa Calm     72.9% 0.00in /  0mm 0 W/m2
20:00 65.4 °F /  18.6 °C 56.5 °F /  13.6 °C 30.15in /  1020.9hPa Calm     73% 0.00in /  0mm 0 W/m2
20:09 64.9 °F /  18.3 °C 56.1 °F /  13.4 °C 30.16in /  1021.2hPa Calm   1mph /  1.6km/h 73% 0.00in /  0mm 0 W/m2
20:14 64.6 °F /  18.1 °C 55.8 °F /  13.2 °C 30.16in /  1021.2hPa Calm   1mph /  1.6km/h 73% 0.00in /  0mm 0 W/m2
20:19 64.3 °F /  17.9 °C 55.5 °F /  13.1 °C 30.16in /  1021.2hPa Calm   1mph /  1.6km/h 73% 0.00in /  0mm 0 W/m2
20:24 64.1 °F /  17.8 °C 55.6 °F /  13.1 °C 30.16in /  1021.2hPa NE 0.3mph /  0.5km/h 2mph /  3.2km/h 73.8% 0.00in /  0mm 0 W/m2
20:29 63.9 °F /  17.7 °C 56.3 °F /  13.5 °C 30.17in /  1021.6hPa NE 0.3mph /  0.5km/h 3mph /  4.8km/h 76.2% 0.00in /  0mm 0 W/m2
20:34 63.6 °F /  17.6 °C 56.1 °F /  13.4 °C 30.17in /  1021.6hPa Calm   3mph /  4.8km/h 76.4% 0.00in /  0mm 0 W/m2
20:39 63.3 °F /  17.4 °C 55.2 °F /  12.9 °C 30.17in /  1021.6hPa Calm     74.9% 0.00in /  0mm 0 W/m2
20:44 63 °F /  17.2 °C 54.6 °F /  12.6 °C 30.17in /  1021.6hPa Calm     74% 0.00in /  0mm 0 W/m2
20:49 62.9 °F /  17.2 °C 54.6 °F /  12.6 °C 30.17in /  1021.6hPa Calm     74.3% 0.00in /  0mm 0 W/m2
20:54 62.8 °F /  17.1 °C 54.8 °F /  12.7 °C 30.17in /  1021.6hPa Calm     75.2% 0.00in /  0mm 0 W/m2
20:59 62.7 °F /  17.1 °C 55.1 °F /  12.8 °C 30.17in /  1021.6hPa Calm     76% 0.00in /  0mm 0 W/m2
21:04 62.7 °F /  17.1 °C 55.1 °F /  12.8 °C 30.17in /  1021.6hPa Calm     76.1% 0.00in /  0mm 0 W/m2
21:09 62.7 °F /  17.1 °C 55.4 °F /  13 °C 30.17in /  1021.6hPa Calm     77% 0.00in /  0mm 0 W/m2
21:14 62.7 °F /  17.1 °C 55.4 °F /  13 °C 30.17in /  1021.6hPa Calm     77% 0.00in /  0mm 0 W/m2
21:30 62.7 °F /  17.1 °C 55.8 °F /  13.2 °C 30.17in /  1021.6hPa Calm     78% 0.00in /  0mm 0 W/m2
22:30 61.4 °F /  16.3 °C 55.5 °F /  13.1 °C 30.19in /  1022.2hPa Calm     81% 0.00in /  0mm 0 W/m2
23:00 60.6 °F /  15.9 °C 55.4 °F /  13 °C 30.21in /  1022.9hPa Calm     83% 0.00in /  0mm 0 W/m2
23:30 59.8 °F /  15.4 °C 55.3 °F /  12.9 °C 30.21in /  1022.9hPa Calm     85% 0.00in /  0mm 0 W/m2
Hartford County Weather
Compliments of Weather Underground - 2 mb